sensor_id;sensor_type;location;lat;lon;timestamp;temperature;humidity
7384;DHT22;3733;47.994;8.820;2023-09-08T00:02:08;16.60;99.90
7384;DHT22;3733;47.994;8.820;2023-09-08T00:04:34;16.60;99.90
7384;DHT22;3733;47.994;8.820;2023-09-08T00:07:00;16.60;99.90
7384;DHT22;3733;47.994;8.820;2023-09-08T00:09:25;16.60;99.90
7384;DHT22;3733;47.994;8.820;2023-09-08T00:11:51;16.50;99.90
7384;DHT22;3733;47.994;8.820;2023-09-08T00:14:17;16.50;99.90
7384;DHT22;3733;47.994;8.820;2023-09-08T00:16:43;16.40;99.90
7384;DHT22;3733;47.994;8.820;2023-09-08T00:19:10;16.40;99.90
7384;DHT22;3733;47.994;8.820;2023-09-08T00:21:36;16.40;99.90
7384;DHT22;3733;47.994;8.820;2023-09-08T00:24:02;16.40;99.90
7384;DHT22;3733;47.994;8.820;2023-09-08T00:26:29;16.30;99.90
7384;DHT22;3733;47.994;8.820;2023-09-08T00:28:55;16.30;99.90
7384;DHT22;3733;47.994;8.820;2023-09-08T00:31:20;16.30;99.90
7384;DHT22;3733;47.994;8.820;2023-09-08T00:33:46;16.30;99.90
7384;DHT22;3733;47.994;8.820;2023-09-08T00:36:12;16.20;99.90
7384;DHT22;3733;47.994;8.820;2023-09-08T00:38:37;16.20;99.90
7384;DHT22;3733;47.994;8.820;2023-09-08T00:41:04;16.20;99.90
7384;DHT22;3733;47.994;8.820;2023-09-08T00:43:30;16.20;99.90
7384;DHT22;3733;47.994;8.820;2023-09-08T00:45:56;16.10;99.90
7384;DHT22;3733;47.994;8.820;2023-09-08T00:48:24;16.10;99.90
7384;DHT22;3733;47.994;8.820;2023-09-08T00:50:50;16.20;99.90
7384;DHT22;3733;47.994;8.820;2023-09-08T00:53:17;16.10;99.90
7384;DHT22;3733;47.994;8.820;2023-09-08T00:55:42;16.10;99.90
7384;DHT22;3733;47.994;8.820;2023-09-08T00:58:09;16.10;99.90
7384;DHT22;3733;47.994;8.820;2023-09-08T01:00:35;16.10;99.90
7384;DHT22;3733;47.994;8.820;2023-09-08T01:03:01;16.10;99.90
7384;DHT22;3733;47.994;8.820;2023-09-08T01:05:28;16.00;99.90
7384;DHT22;3733;47.994;8.820;2023-09-08T01:07:53;16.00;99.90
7384;DHT22;3733;47.994;8.820;2023-09-08T01:10:21;16.00;99.90
7384;DHT22;3733;47.994;8.820;2023-09-08T01:12:46;16.00;99.90
7384;DHT22;3733;47.994;8.820;2023-09-08T01:15:12;15.90;99.90
7384;DHT22;3733;47.994;8.820;2023-09-08T01:17:37;15.90;99.90
7384;DHT22;3733;47.994;8.820;2023-09-08T01:25:45;15.80;99.90
7384;DHT22;3733;47.994;8.820;2023-09-08T01:28:12;15.80;99.90
7384;DHT22;3733;47.994;8.820;2023-09-08T01:30:38;15.70;99.90
7384;DHT22;3733;47.994;8.820;2023-09-08T01:33:05;15.70;99.90
7384;DHT22;3733;47.994;8.820;2023-09-08T01:35:31;15.70;99.90
7384;DHT22;3733;47.994;8.820;2023-09-08T01:37:57;15.70;99.90
7384;DHT22;3733;47.994;8.820;2023-09-08T01:40:23;15.60;99.90
7384;DHT22;3733;47.994;8.820;2023-09-08T01:42:49;15.60;99.90
7384;DHT22;3733;47.994;8.820;2023-09-08T01:45:15;15.60;99.90
7384;DHT22;3733;47.994;8.820;2023-09-08T01:47:40;15.60;99.90
7384;DHT22;3733;47.994;8.820;2023-09-08T01:50:06;15.60;99.90
7384;DHT22;3733;47.994;8.820;2023-09-08T01:52:32;15.50;99.90
7384;DHT22;3733;47.994;8.820;2023-09-08T01:54:57;15.50;99.90
7384;DHT22;3733;47.994;8.820;2023-09-08T01:57:23;15.50;99.90
7384;DHT22;3733;47.994;8.820;2023-09-08T01:59:48;15.50;99.90
7384;DHT22;3733;47.994;8.820;2023-09-08T02:02:14;15.50;99.90
7384;DHT22;3733;47.994;8.820;2023-09-08T02:04:40;15.40;99.90
7384;DHT22;3733;47.994;8.820;2023-09-08T02:07:06;15.40;99.90
7384;DHT22;3733;47.994;8.820;2023-09-08T02:09:32;15.30;99.90
7384;DHT22;3733;47.994;8.820;2023-09-08T02:11:58;15.30;99.90
7384;DHT22;3733;47.994;8.820;2023-09-08T02:14:24;15.30;99.90
7384;DHT22;3733;47.994;8.820;2023-09-08T02:16:49;15.20;99.90
7384;DHT22;3733;47.994;8.820;2023-09-08T02:19:15;15.20;99.90
7384;DHT22;3733;47.994;8.820;2023-09-08T02:21:41;15.20;99.90
7384;DHT22;3733;47.994;8.820;2023-09-08T02:24:06;15.10;99.90
7384;DHT22;3733;47.994;8.820;2023-09-08T02:26:32;15.10;99.90
7384;DHT22;3733;47.994;8.820;2023-09-08T02:28:59;15.10;99.90
7384;DHT22;3733;47.994;8.820;2023-09-08T02:31:26;15.10;99.90
7384;DHT22;3733;47.994;8.820;2023-09-08T02:33:51;15.10;99.90
7384;DHT22;3733;47.994;8.820;2023-09-08T02:36:17;15.10;99.90
7384;DHT22;3733;47.994;8.820;2023-09-08T02:38:42;15.00;99.90
7384;DHT22;3733;47.994;8.820;2023-09-08T02:41:08;15.00;99.90
7384;DHT22;3733;47.994;8.820;2023-09-08T02:43:34;15.00;99.90
7384;DHT22;3733;47.994;8.820;2023-09-08T02:45:59;15.00;99.90
7384;DHT22;3733;47.994;8.820;2023-09-08T02:48:25;15.00;99.90
7384;DHT22;3733;47.994;8.820;2023-09-08T02:50:51;15.00;99.90
7384;DHT22;3733;47.994;8.820;2023-09-08T02:53:16;15.00;99.90
7384;DHT22;3733;47.994;8.820;2023-09-08T02:55:42;15.00;99.90
7384;DHT22;3733;47.994;8.820;2023-09-08T02:58:08;15.00;99.90
7384;DHT22;3733;47.994;8.820;2023-09-08T03:00:33;14.90;99.90
7384;DHT22;3733;47.994;8.820;2023-09-08T03:02:59;14.90;99.90
7384;DHT22;3733;47.994;8.820;2023-09-08T03:05:24;14.90;99.90
7384;DHT22;3733;47.994;8.820;2023-09-08T03:07:50;14.90;99.90
7384;DHT22;3733;47.994;8.820;2023-09-08T03:10:16;14.90;99.90
7384;DHT22;3733;47.994;8.820;2023-09-08T03:12:41;14.80;99.90
7384;DHT22;3733;47.994;8.820;2023-09-08T03:15:07;14.80;99.90
7384;DHT22;3733;47.994;8.820;2023-09-08T03:17:33;14.80;99.90
7384;DHT22;3733;47.994;8.820;2023-09-08T03:19:59;14.80;99.90
7384;DHT22;3733;47.994;8.820;2023-09-08T03:22:25;14.80;99.90
7384;DHT22;3733;47.994;8.820;2023-09-08T03:24:50;14.80;99.90
7384;DHT22;3733;47.994;8.820;2023-09-08T03:27:16;14.70;99.90
7384;DHT22;3733;47.994;8.820;2023-09-08T03:29:42;14.70;99.90
7384;DHT22;3733;47.994;8.820;2023-09-08T03:32:07;14.70;99.90
7384;DHT22;3733;47.994;8.820;2023-09-08T03:34:33;14.70;99.90
7384;DHT22;3733;47.994;8.820;2023-09-08T03:36:59;14.70;99.90
7384;DHT22;3733;47.994;8.820;2023-09-08T03:39:24;14.70;99.90
7384;DHT22;3733;47.994;8.820;2023-09-08T03:41:50;14.70;99.90
7384;DHT22;3733;47.994;8.820;2023-09-08T03:44:16;14.60;99.90
7384;DHT22;3733;47.994;8.820;2023-09-08T03:46:41;14.60;99.90
7384;DHT22;3733;47.994;8.820;2023-09-08T03:49:07;14.60;99.90
7384;DHT22;3733;47.994;8.820;2023-09-08T03:51:33;14.60;99.90
7384;DHT22;3733;47.994;8.820;2023-09-08T03:53:59;14.60;99.90
7384;DHT22;3733;47.994;8.820;2023-09-08T03:56:24;14.50;99.90
7384;DHT22;3733;47.994;8.820;2023-09-08T03:58:50;14.50;99.90
7384;DHT22;3733;47.994;8.820;2023-09-08T04:01:16;14.50;99.90
7384;DHT22;3733;47.994;8.820;2023-09-08T04:03:41;14.50;99.90
7384;DHT22;3733;47.994;8.820;2023-09-08T04:06:07;14.50;99.90
7384;DHT22;3733;47.994;8.820;2023-09-08T04:08:34;14.40;99.90
7384;DHT22;3733;47.994;8.820;2023-09-08T04:11:00;14.40;99.90
7384;DHT22;3733;47.994;8.820;2023-09-08T04:13:25;14.40;99.90
7384;DHT22;3733;47.994;8.820;2023-09-08T04:15:51;14.40;99.90
7384;DHT22;3733;47.994;8.820;2023-09-08T04:18:16;14.40;99.90
7384;DHT22;3733;47.994;8.820;2023-09-08T04:20:42;14.40;99.90
7384;DHT22;3733;47.994;8.820;2023-09-08T04:23:08;14.30;99.90
7384;DHT22;3733;47.994;8.820;2023-09-08T04:25:34;14.30;99.90
7384;DHT22;3733;47.994;8.820;2023-09-08T04:28:00;14.30;99.90
7384;DHT22;3733;47.994;8.820;2023-09-08T04:30:25;14.30;99.90
7384;DHT22;3733;47.994;8.820;2023-09-08T04:32:51;14.30;99.90
7384;DHT22;3733;47.994;8.820;2023-09-08T04:35:16;14.30;99.90
7384;DHT22;3733;47.994;8.820;2023-09-08T04:37:42;14.30;99.90
7384;DHT22;3733;47.994;8.820;2023-09-08T04:40:08;14.20;99.90
7384;DHT22;3733;47.994;8.820;2023-09-08T04:42:33;14.20;99.90
7384;DHT22;3733;47.994;8.820;2023-09-08T04:44:59;14.20;99.90
7384;DHT22;3733;47.994;8.820;2023-09-08T04:47:24;14.20;99.90
7384;DHT22;3733;47.994;8.820;2023-09-08T04:49:50;14.10;99.90
7384;DHT22;3733;47.994;8.820;2023-09-08T04:52:16;14.10;99.90
7384;DHT22;3733;47.994;8.820;2023-09-08T04:54:41;14.10;99.90
7384;DHT22;3733;47.994;8.820;2023-09-08T04:57:07;14.10;99.90
7384;DHT22;3733;47.994;8.820;2023-09-08T04:59:32;14.10;99.90
7384;DHT22;3733;47.994;8.820;2023-09-08T05:01:58;14.10;99.90
7384;DHT22;3733;47.994;8.820;2023-09-08T05:04:24;14.10;99.90
7384;DHT22;3733;47.994;8.820;2023-09-08T05:06:50;14.10;99.90
7384;DHT22;3733;47.994;8.820;2023-09-08T05:09:15;14.10;99.90
7384;DHT22;3733;47.994;8.820;2023-09-08T05:11:41;14.10;99.90
7384;DHT22;3733;47.994;8.820;2023-09-08T05:14:07;14.10;99.90
7384;DHT22;3733;47.994;8.820;2023-09-08T05:16:32;14.00;99.90
7384;DHT22;3733;47.994;8.820;2023-09-08T05:19:04;14.00;99.90
7384;DHT22;3733;47.994;8.820;2023-09-08T05:21:31;14.00;99.90
7384;DHT22;3733;47.994;8.820;2023-09-08T05:23:56;14.00;99.90
7384;DHT22;3733;47.994;8.820;2023-09-08T05:26:22;14.00;99.90
7384;DHT22;3733;47.994;8.820;2023-09-08T05:28:48;14.00;99.90
7384;DHT22;3733;47.994;8.820;2023-09-08T05:31:13;14.00;99.90
7384;DHT22;3733;47.994;8.820;2023-09-08T05:33:39;14.10;99.90
7384;DHT22;3733;47.994;8.820;2023-09-08T05:36:04;14.10;99.90
7384;DHT22;3733;47.994;8.820;2023-09-08T05:38:30;14.10;99.90
7384;DHT22;3733;47.994;8.820;2023-09-08T05:40:56;14.20;99.90
7384;DHT22;3733;47.994;8.820;2023-09-08T05:43:24;14.20;99.90
7384;DHT22;3733;47.994;8.820;2023-09-08T05:45:50;14.20;99.90
7384;DHT22;3733;47.994;8.820;2023-09-08T05:48:16;14.30;99.90
7384;DHT22;3733;47.994;8.820;2023-09-08T05:50:42;14.30;99.90
7384;DHT22;3733;47.994;8.820;2023-09-08T05:53:07;14.40;99.90
7384;DHT22;3733;47.994;8.820;2023-09-08T05:55:33;14.40;99.90
7384;DHT22;3733;47.994;8.820;2023-09-08T05:57:59;14.40;99.90
7384;DHT22;3733;47.994;8.820;2023-09-08T06:00:24;14.50;99.90
7384;DHT22;3733;47.994;8.820;2023-09-08T06:02:50;14.50;99.90
7384;DHT22;3733;47.994;8.820;2023-09-08T06:05:16;14.50;99.90
7384;DHT22;3733;47.994;8.820;2023-09-08T06:07:41;14.60;99.90
7384;DHT22;3733;47.994;8.820;2023-09-08T06:10:07;14.70;99.90
7384;DHT22;3733;47.994;8.820;2023-09-08T06:12:33;14.70;99.90
7384;DHT22;3733;47.994;8.820;2023-09-08T06:14:58;14.90;99.90
7384;DHT22;3733;47.994;8.820;2023-09-08T06:17:24;14.90;99.90
7384;DHT22;3733;47.994;8.820;2023-09-08T06:19:49;15.00;99.90
7384;DHT22;3733;47.994;8.820;2023-09-08T06:22:15;15.10;99.90
7384;DHT22;3733;47.994;8.820;2023-09-08T06:24:41;15.20;99.90
7384;DHT22;3733;47.994;8.820;2023-09-08T06:27:07;15.30;99.90
7384;DHT22;3733;47.994;8.820;2023-09-08T06:29:33;15.30;99.90
7384;DHT22;3733;47.994;8.820;2023-09-08T06:31:59;15.40;99.90
7384;DHT22;3733;47.994;8.820;2023-09-08T06:34:24;15.40;99.90
7384;DHT22;3733;47.994;8.820;2023-09-08T06:36:50;15.50;99.90
7384;DHT22;3733;47.994;8.820;2023-09-08T06:39:15;15.50;99.90
7384;DHT22;3733;47.994;8.820;2023-09-08T06:41:41;15.60;99.90
7384;DHT22;3733;47.994;8.820;2023-09-08T06:44:06;15.60;99.90
7384;DHT22;3733;47.994;8.820;2023-09-08T06:46:32;15.70;99.90
7384;DHT22;3733;47.994;8.820;2023-09-08T06:48:58;15.70;99.90
7384;DHT22;3733;47.994;8.820;2023-09-08T06:51:23;15.80;99.90
7384;DHT22;3733;47.994;8.820;2023-09-08T06:53:56;15.90;99.90
7384;DHT22;3733;47.994;8.820;2023-09-08T06:56:22;16.00;99.90
7384;DHT22;3733;47.994;8.820;2023-09-08T06:58:47;16.00;99.90
7384;DHT22;3733;47.994;8.820;2023-09-08T07:01:13;16.10;99.90
7384;DHT22;3733;47.994;8.820;2023-09-08T07:03:39;16.20;99.90
7384;DHT22;3733;47.994;8.820;2023-09-08T07:06:04;16.30;99.90
7384;DHT22;3733;47.994;8.820;2023-09-08T07:08:30;16.40;99.90
7384;DHT22;3733;47.994;8.820;2023-09-08T07:10:55;16.40;99.90
7384;DHT22;3733;47.994;8.820;2023-09-08T07:13:21;16.50;99.90
7384;DHT22;3733;47.994;8.820;2023-09-08T07:15:47;16.60;99.90
7384;DHT22;3733;47.994;8.820;2023-09-08T07:18:12;16.60;99.90
7384;DHT22;3733;47.994;8.820;2023-09-08T07:20:38;16.70;99.90
7384;DHT22;3733;47.994;8.820;2023-09-08T07:23:03;16.80;99.90
7384;DHT22;3733;47.994;8.820;2023-09-08T07:25:29;16.80;99.90
7384;DHT22;3733;47.994;8.820;2023-09-08T07:27:55;16.90;99.90
7384;DHT22;3733;47.994;8.820;2023-09-08T07:30:21;17.00;99.90
7384;DHT22;3733;47.994;8.820;2023-09-08T07:32:46;17.10;99.90
7384;DHT22;3733;47.994;8.820;2023-09-08T07:35:12;17.20;99.90
7384;DHT22;3733;47.994;8.820;2023-09-08T07:37:43;17.30;99.90
7384;DHT22;3733;47.994;8.820;2023-09-08T07:40:09;17.40;99.90
7384;DHT22;3733;47.994;8.820;2023-09-08T07:42:35;17.50;99.90
7384;DHT22;3733;47.994;8.820;2023-09-08T07:45:01;17.60;99.90
7384;DHT22;3733;47.994;8.820;2023-09-08T07:47:26;17.70;99.90
7384;DHT22;3733;47.994;8.820;2023-09-08T07:49:52;17.80;99.90
7384;DHT22;3733;47.994;8.820;2023-09-08T07:52:37;17.90;99.90
7384;DHT22;3733;47.994;8.820;2023-09-08T07:55:03;18.00;99.90
7384;DHT22;3733;47.994;8.820;2023-09-08T07:57:29;18.10;99.90
7384;DHT22;3733;47.994;8.820;2023-09-08T07:59:54;18.20;99.90
7384;DHT22;3733;47.994;8.820;2023-09-08T08:02:20;18.30;99.90
7384;DHT22;3733;47.994;8.820;2023-09-08T08:04:46;18.40;99.90
7384;DHT22;3733;47.994;8.820;2023-09-08T08:07:11;18.50;99.90
7384;DHT22;3733;47.994;8.820;2023-09-08T08:09:37;18.60;99.90
7384;DHT22;3733;47.994;8.820;2023-09-08T08:12:02;18.70;99.90
7384;DHT22;3733;47.994;8.820;2023-09-08T08:14:28;18.80;99.90
7384;DHT22;3733;47.994;8.820;2023-09-08T08:16:53;18.90;99.90
7384;DHT22;3733;47.994;8.820;2023-09-08T08:19:19;19.00;99.90
7384;DHT22;3733;47.994;8.820;2023-09-08T08:21:45;19.20;99.90
7384;DHT22;3733;47.994;8.820;2023-09-08T08:24:10;19.20;99.90
7384;DHT22;3733;47.994;8.820;2023-09-08T08:26:36;19.40;99.90
7384;DHT22;3733;47.994;8.820;2023-09-08T08:29:01;19.50;99.90
7384;DHT22;3733;47.994;8.820;2023-09-08T08:31:28;19.60;99.90
7384;DHT22;3733;47.994;8.820;2023-09-08T08:33:54;19.70;99.90
7384;DHT22;3733;47.994;8.820;2023-09-08T08:36:20;19.90;99.90
7384;DHT22;3733;47.994;8.820;2023-09-08T08:38:46;20.00;99.90
7384;DHT22;3733;47.994;8.820;2023-09-08T08:41:11;20.10;99.90
7384;DHT22;3733;47.994;8.820;2023-09-08T08:43:37;20.30;99.90
7384;DHT22;3733;47.994;8.820;2023-09-08T08:46:03;20.40;99.90
7384;DHT22;3733;47.994;8.820;2023-09-08T08:48:29;20.60;99.90
7384;DHT22;3733;47.994;8.820;2023-09-08T08:50:57;20.70;99.90
7384;DHT22;3733;47.994;8.820;2023-09-08T08:53:25;20.80;99.90
7384;DHT22;3733;47.994;8.820;2023-09-08T08:55:54;21.00;99.90
7384;DHT22;3733;47.994;8.820;2023-09-08T08:58:21;21.20;99.90
7384;DHT22;3733;47.994;8.820;2023-09-08T09:00:51;21.30;99.90
7384;DHT22;3733;47.994;8.820;2023-09-08T09:03:19;21.50;99.90
7384;DHT22;3733;47.994;8.820;2023-09-08T09:05:46;21.70;99.90
7384;DHT22;3733;47.994;8.820;2023-09-08T09:08:12;21.90;99.90
7384;DHT22;3733;47.994;8.820;2023-09-08T09:10:38;22.10;99.90
7384;DHT22;3733;47.994;8.820;2023-09-08T09:13:04;22.30;99.90
7384;DHT22;3733;47.994;8.820;2023-09-08T09:15:31;22.50;99.90
7384;DHT22;3733;47.994;8.820;2023-09-08T09:18:07;22.70;99.90
7384;DHT22;3733;47.994;8.820;2023-09-08T09:20:34;22.80;99.90
7384;DHT22;3733;47.994;8.820;2023-09-08T09:23:00;23.00;99.90
7384;DHT22;3733;47.994;8.820;2023-09-08T09:25:28;23.20;97.80
7384;DHT22;3733;47.994;8.820;2023-09-08T09:27:59;23.40;96.10
7384;DHT22;3733;47.994;8.820;2023-09-08T09:30:25;23.60;97.40
7384;DHT22;3733;47.994;8.820;2023-09-08T09:33:02;23.80;94.50
7384;DHT22;3733;47.994;8.820;2023-09-08T09:38:05;24.00;94.20
7384;DHT22;3733;47.994;8.820;2023-09-08T09:40:30;24.20;92.20
7384;DHT22;3733;47.994;8.820;2023-09-08T09:42:58;24.40;90.20
7384;DHT22;3733;47.994;8.820;2023-09-08T09:45:27;24.50;86.10
7384;DHT22;3733;47.994;8.820;2023-09-08T09:47:55;24.70;83.00
7384;DHT22;3733;47.994;8.820;2023-09-08T09:50:32;24.80;80.60
7384;DHT22;3733;47.994;8.820;2023-09-08T09:52:59;25.00;77.80
7384;DHT22;3733;47.994;8.820;2023-09-08T09:55:26;25.10;72.40
7384;DHT22;3733;47.994;8.820;2023-09-08T09:57:59;25.10;72.70
7384;DHT22;3733;47.994;8.820;2023-09-08T10:00:27;25.20;76.60
7384;DHT22;3733;47.994;8.820;2023-09-08T10:02:54;25.40;77.30
7384;DHT22;3733;47.994;8.820;2023-09-08T10:05:20;25.60;75.00
7384;DHT22;3733;47.994;8.820;2023-09-08T10:07:47;25.70;72.30
7384;DHT22;3733;47.994;8.820;2023-09-08T10:10:17;25.70;68.00
7384;DHT22;3733;47.994;8.820;2023-09-08T10:12:52;25.70;69.00
7384;DHT22;3733;47.994;8.820;2023-09-08T10:15:22;25.90;73.50
7384;DHT22;3733;47.994;8.820;2023-09-08T10:17:55;26.00;70.10
7384;DHT22;3733;47.994;8.820;2023-09-08T10:20:23;26.00;67.30
7384;DHT22;3733;47.994;8.820;2023-09-08T10:22:53;26.10;68.30
7384;DHT22;3733;47.994;8.820;2023-09-08T10:25:20;26.10;66.40
7384;DHT22;3733;47.994;8.820;2023-09-08T10:27:47;26.20;67.30
7384;DHT22;3733;47.994;8.820;2023-09-08T10:30:14;26.30;68.90
7384;DHT22;3733;47.994;8.820;2023-09-08T10:32:40;26.50;68.90
7384;DHT22;3733;47.994;8.820;2023-09-08T10:35:07;26.60;67.90
7384;DHT22;3733;47.994;8.820;2023-09-08T10:37:33;26.80;67.40
7384;DHT22;3733;47.994;8.820;2023-09-08T10:40:24;26.90;66.20
7384;DHT22;3733;47.994;8.820;2023-09-08T10:43:11;27.00;63.70
7384;DHT22;3733;47.994;8.820;2023-09-08T10:45:37;27.10;63.00
7384;DHT22;3733;47.994;8.820;2023-09-08T10:48:06;27.00;62.20
7384;DHT22;3733;47.994;8.820;2023-09-08T10:50:35;27.00;61.50
7384;DHT22;3733;47.994;8.820;2023-09-08T10:53:19;26.90;62.50
7384;DHT22;3733;47.994;8.820;2023-09-08T10:55:47;27.00;62.60
7384;DHT22;3733;47.994;8.820;2023-09-08T10:58:32;27.10;62.10
7384;DHT22;3733;47.994;8.820;2023-09-08T11:00:59;27.10;61.60
7384;DHT22;3733;47.994;8.820;2023-09-08T11:06:08;27.30;63.10
7384;DHT22;3733;47.994;8.820;2023-09-08T11:08:36;27.40;62.40
7384;DHT22;3733;47.994;8.820;2023-09-08T11:11:02;27.50;62.30
7384;DHT22;3733;47.994;8.820;2023-09-08T11:13:28;27.60;61.00
7384;DHT22;3733;47.994;8.820;2023-09-08T11:15:54;27.70;58.80
7384;DHT22;3733;47.994;8.820;2023-09-08T11:18:29;27.70;59.30
7384;DHT22;3733;47.994;8.820;2023-09-08T11:20:56;27.80;58.60
7384;DHT22;3733;47.994;8.820;2023-09-08T11:23:23;27.90;59.00
7384;DHT22;3733;47.994;8.820;2023-09-08T11:25:50;28.00;59.60
7384;DHT22;3733;47.994;8.820;2023-09-08T11:28:17;28.20;57.60
7384;DHT22;3733;47.994;8.820;2023-09-08T11:30:46;28.20;58.00
7384;DHT22;3733;47.994;8.820;2023-09-08T11:33:19;28.40;58.70
7384;DHT22;3733;47.994;8.820;2023-09-08T11:35:50;28.50;58.20
7384;DHT22;3733;47.994;8.820;2023-09-08T11:38:16;28.60;57.90
7384;DHT22;3733;47.994;8.820;2023-09-08T11:40:42;28.70;57.00
7384;DHT22;3733;47.994;8.820;2023-09-08T11:43:07;28.80;56.10
7384;DHT22;3733;47.994;8.820;2023-09-08T11:45:36;28.90;56.20
7384;DHT22;3733;47.994;8.820;2023-09-08T11:48:04;29.00;56.90
7384;DHT22;3733;47.994;8.820;2023-09-08T11:50:30;29.10;57.00
7384;DHT22;3733;47.994;8.820;2023-09-08T11:52:57;29.20;54.80
7384;DHT22;3733;47.994;8.820;2023-09-08T11:55:24;29.20;55.30
7384;DHT22;3733;47.994;8.820;2023-09-08T11:57:53;29.30;56.30
7384;DHT22;3733;47.994;8.820;2023-09-08T12:00:28;29.40;55.40
7384;DHT22;3733;47.994;8.820;2023-09-08T12:02:54;29.60;55.10
7384;DHT22;3733;47.994;8.820;2023-09-08T12:05:27;29.80;55.10
7384;DHT22;3733;47.994;8.820;2023-09-08T12:07:54;30.00;55.30
7384;DHT22;3733;47.994;8.820;2023-09-08T12:10:21;30.10;53.70
7384;DHT22;3733;47.994;8.820;2023-09-08T12:18:01;30.50;54.00
7384;DHT22;3733;47.994;8.820;2023-09-08T12:20:27;30.70;54.20
7384;DHT22;3733;47.994;8.820;2023-09-08T12:22:53;30.80;53.50
7384;DHT22;3733;47.994;8.820;2023-09-08T12:25:19;30.90;53.40
7384;DHT22;3733;47.994;8.820;2023-09-08T12:27:46;31.10;53.10
7384;DHT22;3733;47.994;8.820;2023-09-08T12:30:19;31.30;53.70
7384;DHT22;3733;47.994;8.820;2023-09-08T12:32:47;31.40;52.40
7384;DHT22;3733;47.994;8.820;2023-09-08T12:35:22;31.50;52.20
7384;DHT22;3733;47.994;8.820;2023-09-08T12:38:01;31.70;51.70
7384;DHT22;3733;47.994;8.820;2023-09-08T12:40:29;31.80;50.80
7384;DHT22;3733;47.994;8.820;2023-09-08T12:42:55;31.70;50.00
7384;DHT22;3733;47.994;8.820;2023-09-08T12:45:22;31.70;49.50
7384;DHT22;3733;47.994;8.820;2023-09-08T12:47:48;31.50;48.00
7384;DHT22;3733;47.994;8.820;2023-09-08T12:50:14;31.40;49.30
7384;DHT22;3733;47.994;8.820;2023-09-08T12:52:40;31.40;50.90
7384;DHT22;3733;47.994;8.820;2023-09-08T12:55:07;31.60;50.20
7384;DHT22;3733;47.994;8.820;2023-09-08T12:57:32;31.70;49.10
7384;DHT22;3733;47.994;8.820;2023-09-08T12:59:58;31.70;48.80
7384;DHT22;3733;47.994;8.820;2023-09-08T13:02:24;31.80;49.60
7384;DHT22;3733;47.994;8.820;2023-09-08T13:04:49;32.00;49.40
7384;DHT22;3733;47.994;8.820;2023-09-08T13:07:16;32.10;46.10
7384;DHT22;3733;47.994;8.820;2023-09-08T13:09:42;32.10;47.20
7384;DHT22;3733;47.994;8.820;2023-09-08T13:12:07;32.10;45.30
7384;DHT22;3733;47.994;8.820;2023-09-08T13:14:34;32.00;45.60
7384;DHT22;3733;47.994;8.820;2023-09-08T13:17:00;31.90;46.60
7384;DHT22;3733;47.994;8.820;2023-09-08T13:19:26;32.00;46.40
7384;DHT22;3733;47.994;8.820;2023-09-08T13:21:52;32.10;46.10
7384;DHT22;3733;47.994;8.820;2023-09-08T13:24:17;32.10;44.90
7384;DHT22;3733;47.994;8.820;2023-09-08T13:26:44;32.10;45.30
7384;DHT22;3733;47.994;8.820;2023-09-08T13:29:10;32.00;45.80
7384;DHT22;3733;47.994;8.820;2023-09-08T13:31:35;32.20;46.30
7384;DHT22;3733;47.994;8.820;2023-09-08T13:34:01;32.40;46.10
7384;DHT22;3733;47.994;8.820;2023-09-08T13:36:26;32.60;45.70
7384;DHT22;3733;47.994;8.820;2023-09-08T13:38:52;32.80;46.70
7384;DHT22;3733;47.994;8.820;2023-09-08T13:41:17;33.00;46.60
7384;DHT22;3733;47.994;8.820;2023-09-08T13:43:43;33.30;47.10
7384;DHT22;3733;47.994;8.820;2023-09-08T13:46:08;33.50;47.30
7384;DHT22;3733;47.994;8.820;2023-09-08T13:48:34;33.70;46.40
7384;DHT22;3733;47.994;8.820;2023-09-08T13:51:03;33.90;46.00
7384;DHT22;3733;47.994;8.820;2023-09-08T13:53:29;34.10;46.00
7384;DHT22;3733;47.994;8.820;2023-09-08T13:55:58;34.30;46.10
7384;DHT22;3733;47.994;8.820;2023-09-08T13:58:24;34.40;44.70
7384;DHT22;3733;47.994;8.820;2023-09-08T14:00:50;34.40;44.50
7384;DHT22;3733;47.994;8.820;2023-09-08T14:03:17;34.50;44.20
7384;DHT22;3733;47.994;8.820;2023-09-08T14:05:43;34.50;44.20
7384;DHT22;3733;47.994;8.820;2023-09-08T14:08:08;34.70;43.90
7384;DHT22;3733;47.994;8.820;2023-09-08T14:10:34;34.80;42.70
7384;DHT22;3733;47.994;8.820;2023-09-08T14:13:00;34.80;41.80
7384;DHT22;3733;47.994;8.820;2023-09-08T14:15:25;34.80;43.00
7384;DHT22;3733;47.994;8.820;2023-09-08T14:17:51;34.90;43.50
7384;DHT22;3733;47.994;8.820;2023-09-08T14:20:18;34.90;43.20
7384;DHT22;3733;47.994;8.820;2023-09-08T14:22:44;35.00;43.60
7384;DHT22;3733;47.994;8.820;2023-09-08T14:25:09;35.00;42.80
7384;DHT22;3733;47.994;8.820;2023-09-08T14:27:36;35.10;43.00
7384;DHT22;3733;47.994;8.820;2023-09-08T14:30:03;35.10;43.50
7384;DHT22;3733;47.994;8.820;2023-09-08T14:32:29;35.00;40.60
7384;DHT22;3733;47.994;8.820;2023-09-08T14:34:55;34.90;41.00
7384;DHT22;3733;47.994;8.820;2023-09-08T14:37:21;34.80;42.10
7384;DHT22;3733;47.994;8.820;2023-09-08T14:39:48;34.90;41.60
7384;DHT22;3733;47.994;8.820;2023-09-08T14:42:13;35.00;42.00
7384;DHT22;3733;47.994;8.820;2023-09-08T14:44:41;35.10;42.40
7384;DHT22;3733;47.994;8.820;2023-09-08T14:47:06;35.10;42.00
7384;DHT22;3733;47.994;8.820;2023-09-08T14:49:32;35.10;41.60
7384;DHT22;3733;47.994;8.820;2023-09-08T14:51:58;35.10;41.10
7384;DHT22;3733;47.994;8.820;2023-09-08T14:54:23;35.10;41.20
7384;DHT22;3733;47.994;8.820;2023-09-08T14:56:49;35.10;41.00
7384;DHT22;3733;47.994;8.820;2023-09-08T14:59:15;35.00;40.20
7384;DHT22;3733;47.994;8.820;2023-09-08T15:01:41;35.00;40.60
7384;DHT22;3733;47.994;8.820;2023-09-08T15:04:08;35.00;40.20
7384;DHT22;3733;47.994;8.820;2023-09-08T15:06:34;34.90;41.00
7384;DHT22;3733;47.994;8.820;2023-09-08T15:08:59;34.80;40.70
7384;DHT22;3733;47.994;8.820;2023-09-08T15:11:25;34.70;40.20
7384;DHT22;3733;47.994;8.820;2023-09-08T15:13:50;34.70;40.60
7384;DHT22;3733;47.994;8.820;2023-09-08T15:16:16;34.50;40.70
7384;DHT22;3733;47.994;8.820;2023-09-08T15:18:42;34.40;40.50
7384;DHT22;3733;47.994;8.820;2023-09-08T15:21:08;34.20;39.90
7384;DHT22;3733;47.994;8.820;2023-09-08T15:23:33;34.10;41.30
7384;DHT22;3733;47.994;8.820;2023-09-08T15:25:59;33.80;40.30
7384;DHT22;3733;47.994;8.820;2023-09-08T15:28:25;33.60;40.70
7384;DHT22;3733;47.994;8.820;2023-09-08T15:30:53;33.30;42.10
7384;DHT22;3733;47.994;8.820;2023-09-08T15:33:19;32.90;42.20
7384;DHT22;3733;47.994;8.820;2023-09-08T15:35:49;32.30;42.80
7384;DHT22;3733;47.994;8.820;2023-09-08T15:38:15;31.70;44.80
7384;DHT22;3733;47.994;8.820;2023-09-08T15:43:31;30.60;46.90
7384;DHT22;3733;47.994;8.820;2023-09-08T15:45:56;30.20;47.50
7384;DHT22;3733;47.994;8.820;2023-09-08T15:48:22;29.90;47.10
7384;DHT22;3733;47.994;8.820;2023-09-08T15:50:47;29.60;47.10
7384;DHT22;3733;47.994;8.820;2023-09-08T15:53:13;29.30;47.70
7384;DHT22;3733;47.994;8.820;2023-09-08T15:55:39;29.00;48.30
7384;DHT22;3733;47.994;8.820;2023-09-08T15:58:04;28.90;49.30
7384;DHT22;3733;47.994;8.820;2023-09-08T16:00:30;28.70;49.80
7384;DHT22;3733;47.994;8.820;2023-09-08T16:02:59;28.60;51.00
7384;DHT22;3733;47.994;8.820;2023-09-08T16:05:25;28.40;52.20
7384;DHT22;3733;47.994;8.820;2023-09-08T16:07:50;28.30;52.70
7384;DHT22;3733;47.994;8.820;2023-09-08T16:10:16;28.20;53.10
7384;DHT22;3733;47.994;8.820;2023-09-08T16:12:42;28.00;53.00
7384;DHT22;3733;47.994;8.820;2023-09-08T16:15:07;27.90;53.60
7384;DHT22;3733;47.994;8.820;2023-09-08T16:17:33;27.90;54.30